sensor_id;sensor_type;location;lat;lon;timestamp;P1;durP1;ratioP1;P2;durP2;ratioP2
18280;SDS011;9266;51.132;17.062;2023-08-31T00:01:13;8.20;;;6.33;;
18280;SDS011;9266;51.132;17.062;2023-08-31T00:03:40;8.53;;;7.10;;
18280;SDS011;9266;51.132;17.062;2023-08-31T00:06:07;9.10;;;6.87;;
18280;SDS011;9266;51.132;17.062;2023-08-31T00:08:34;7.00;;;6.30;;
18280;SDS011;9266;51.132;17.062;2023-08-31T00:11:01;8.07;;;6.73;;
18280;SDS011;9266;51.132;17.062;2023-08-31T00:13:28;8.17;;;6.97;;
18280;SDS011;9266;51.132;17.062;2023-08-31T00:15:56;8.13;;;6.70;;
18280;SDS011;9266;51.132;17.062;2023-08-31T00:18:24;7.93;;;6.70;;
18280;SDS011;9266;51.132;17.062;2023-08-31T00:20:52;6.93;;;6.20;;
18280;SDS011;9266;51.132;17.062;2023-08-31T00:23:19;9.80;;;7.50;;
18280;SDS011;9266;51.132;17.062;2023-08-31T00:25:46;8.30;;;6.50;;
18280;SDS011;9266;51.132;17.062;2023-08-31T00:28:14;8.53;;;6.80;;
18280;SDS011;9266;51.132;17.062;2023-08-31T00:30:43;7.20;;;6.20;;
18280;SDS011;9266;51.132;17.062;2023-08-31T00:33:12;12.17;;;6.87;;
18280;SDS011;9266;51.132;17.062;2023-08-31T00:35:39;8.00;;;6.33;;
18280;SDS011;9266;51.132;17.062;2023-08-31T00:38:11;8.87;;;6.90;;
18280;SDS011;9266;51.132;17.062;2023-08-31T00:40:39;6.93;;;5.90;;
18280;SDS011;9266;51.132;17.062;2023-08-31T00:43:07;7.60;;;6.20;;
18280;SDS011;9266;51.132;17.062;2023-08-31T00:45:34;7.70;;;5.83;;
18280;SDS011;9266;51.132;17.062;2023-08-31T00:48:02;6.90;;;6.17;;
18280;SDS011;9266;51.132;17.062;2023-08-31T00:50:31;8.33;;;6.07;;
18280;SDS011;9266;51.132;17.062;2023-08-31T00:52:58;6.97;;;6.23;;
18280;SDS011;9266;51.132;17.062;2023-08-31T00:55:25;9.30;;;7.00;;
18280;SDS011;9266;51.132;17.062;2023-08-31T00:57:52;7.40;;;6.67;;
18280;SDS011;9266;51.132;17.062;2023-08-31T01:00:20;7.83;;;6.87;;
18280;SDS011;9266;51.132;17.062;2023-08-31T01:02:51;8.63;;;6.70;;
18280;SDS011;9266;51.132;17.062;2023-08-31T01:05:32;8.13;;;6.67;;
18280;SDS011;9266;51.132;17.062;2023-08-31T01:08:07;7.33;;;6.50;;
18280;SDS011;9266;51.132;17.062;2023-08-31T01:10:47;9.03;;;7.17;;
18280;SDS011;9266;51.132;17.062;2023-08-31T01:13:23;8.03;;;6.87;;
18280;SDS011;9266;51.132;17.062;2023-08-31T01:15:52;10.03;;;7.10;;
18280;SDS011;9266;51.132;17.062;2023-08-31T01:18:23;7.10;;;6.40;;
18280;SDS011;9266;51.132;17.062;2023-08-31T01:20:55;8.40;;;7.33;;
18280;SDS011;9266;51.132;17.062;2023-08-31T01:23:29;8.80;;;7.37;;
18280;SDS011;9266;51.132;17.062;2023-08-31T01:26:06;9.63;;;7.83;;
18280;SDS011;9266;51.132;17.062;2023-08-31T01:28:34;9.33;;;8.30;;
18280;SDS011;9266;51.132;17.062;2023-08-31T01:31:03;8.67;;;7.50;;
18280;SDS011;9266;51.132;17.062;2023-08-31T01:33:30;8.30;;;7.47;;
18280;SDS011;9266;51.132;17.062;2023-08-31T01:35:57;9.50;;;7.40;;
18280;SDS011;9266;51.132;17.062;2023-08-31T01:38:29;11.00;;;7.60;;
18280;SDS011;9266;51.132;17.062;2023-08-31T01:41:00;8.90;;;7.27;;
18280;SDS011;9266;51.132;17.062;2023-08-31T01:43:33;10.13;;;7.43;;
18280;SDS011;9266;51.132;17.062;2023-08-31T01:46:01;7.90;;;7.13;;
18280;SDS011;9266;51.132;17.062;2023-08-31T01:48:29;9.37;;;8.00;;
18280;SDS011;9266;51.132;17.062;2023-08-31T01:50:56;8.37;;;7.53;;
18280;SDS011;9266;51.132;17.062;2023-08-31T01:53:22;9.00;;;7.83;;
18280;SDS011;9266;51.132;17.062;2023-08-31T01:55:51;9.13;;;6.87;;
18280;SDS011;9266;51.132;17.062;2023-08-31T01:58:18;8.37;;;7.47;;
18280;SDS011;9266;51.132;17.062;2023-08-31T02:00:46;7.83;;;7.03;;
18280;SDS011;9266;51.132;17.062;2023-08-31T02:03:13;9.40;;;7.37;;
18280;SDS011;9266;51.132;17.062;2023-08-31T02:05:40;8.60;;;6.77;;
18280;SDS011;9266;51.132;17.062;2023-08-31T02:08:07;9.90;;;6.67;;
18280;SDS011;9266;51.132;17.062;2023-08-31T02:10:34;8.13;;;6.43;;
18280;SDS011;9266;51.132;17.062;2023-08-31T02:13:01;8.87;;;7.10;;
18280;SDS011;9266;51.132;17.062;2023-08-31T02:15:28;10.27;;;6.87;;
18280;SDS011;9266;51.132;17.062;2023-08-31T02:17:56;8.10;;;6.97;;
18280;SDS011;9266;51.132;17.062;2023-08-31T02:20:23;7.93;;;7.13;;
18280;SDS011;9266;51.132;17.062;2023-08-31T02:22:51;9.03;;;7.47;;
18280;SDS011;9266;51.132;17.062;2023-08-31T02:25:18;9.23;;;7.43;;
18280;SDS011;9266;51.132;17.062;2023-08-31T02:27:45;8.10;;;7.30;;
18280;SDS011;9266;51.132;17.062;2023-08-31T02:30:12;9.43;;;7.70;;
18280;SDS011;9266;51.132;17.062;2023-08-31T02:32:40;8.30;;;7.40;;
18280;SDS011;9266;51.132;17.062;2023-08-31T02:35:08;9.17;;;7.27;;
18280;SDS011;9266;51.132;17.062;2023-08-31T02:37:36;9.17;;;7.60;;
18280;SDS011;9266;51.132;17.062;2023-08-31T02:40:04;9.27;;;7.50;;
18280;SDS011;9266;51.132;17.062;2023-08-31T02:42:31;10.00;;;7.50;;
18280;SDS011;9266;51.132;17.062;2023-08-31T02:44:58;10.50;;;8.17;;
18280;SDS011;9266;51.132;17.062;2023-08-31T02:47:25;9.37;;;7.60;;
18280;SDS011;9266;51.132;17.062;2023-08-31T02:49:52;11.83;;;8.17;;
18280;SDS011;9266;51.132;17.062;2023-08-31T02:52:20;9.27;;;7.97;;
18280;SDS011;9266;51.132;17.062;2023-08-31T02:54:48;9.87;;;8.13;;
18280;SDS011;9266;51.132;17.062;2023-08-31T02:57:14;11.67;;;8.73;;
18280;SDS011;9266;51.132;17.062;2023-08-31T02:59:44;10.10;;;8.43;;
18280;SDS011;9266;51.132;17.062;2023-08-31T03:02:11;13.83;;;9.03;;
18280;SDS011;9266;51.132;17.062;2023-08-31T03:04:38;10.33;;;9.17;;
18280;SDS011;9266;51.132;17.062;2023-08-31T03:07:05;12.70;;;8.83;;
18280;SDS011;9266;51.132;17.062;2023-08-31T03:09:34;10.40;;;8.60;;
18280;SDS011;9266;51.132;17.062;2023-08-31T03:12:03;12.00;;;8.37;;
18280;SDS011;9266;51.132;17.062;2023-08-31T03:14:30;10.10;;;7.67;;
18280;SDS011;9266;51.132;17.062;2023-08-31T03:16:57;10.63;;;8.93;;
18280;SDS011;9266;51.132;17.062;2023-08-31T03:19:24;9.73;;;8.73;;
18280;SDS011;9266;51.132;17.062;2023-08-31T03:21:51;10.33;;;8.20;;
18280;SDS011;9266;51.132;17.062;2023-08-31T03:24:18;11.27;;;9.20;;
18280;SDS011;9266;51.132;17.062;2023-08-31T03:26:46;12.67;;;9.77;;
18280;SDS011;9266;51.132;17.062;2023-08-31T03:29:13;12.20;;;9.17;;
18280;SDS011;9266;51.132;17.062;2023-08-31T03:31:40;11.37;;;9.00;;
18280;SDS011;9266;51.132;17.062;2023-08-31T03:34:07;12.10;;;9.23;;
18280;SDS011;9266;51.132;17.062;2023-08-31T03:36:34;12.40;;;9.50;;
18280;SDS011;9266;51.132;17.062;2023-08-31T03:39:01;11.67;;;9.50;;
18280;SDS011;9266;51.132;17.062;2023-08-31T03:41:28;11.03;;;9.00;;
18280;SDS011;9266;51.132;17.062;2023-08-31T03:43:57;13.17;;;9.37;;
18280;SDS011;9266;51.132;17.062;2023-08-31T03:46:24;11.93;;;9.50;;
18280;SDS011;9266;51.132;17.062;2023-08-31T03:48:51;10.80;;;9.60;;
18280;SDS011;9266;51.132;17.062;2023-08-31T03:51:18;13.03;;;10.27;;
18280;SDS011;9266;51.132;17.062;2023-08-31T03:53:45;12.30;;;9.30;;
18280;SDS011;9266;51.132;17.062;2023-08-31T03:56:12;13.87;;;9.87;;
18280;SDS011;9266;51.132;17.062;2023-08-31T03:58:39;12.57;;;9.53;;
18280;SDS011;9266;51.132;17.062;2023-08-31T04:01:08;11.10;;;8.90;;
18280;SDS011;9266;51.132;17.062;2023-08-31T04:03:35;10.77;;;8.13;;
18280;SDS011;9266;51.132;17.062;2023-08-31T04:06:02;14.37;;;10.40;;
18280;SDS011;9266;51.132;17.062;2023-08-31T04:08:30;13.00;;;10.00;;
18280;SDS011;9266;51.132;17.062;2023-08-31T04:10:57;14.00;;;9.53;;
18280;SDS011;9266;51.132;17.062;2023-08-31T04:13:24;14.53;;;9.63;;
18280;SDS011;9266;51.132;17.062;2023-08-31T04:15:51;14.60;;;9.37;;
18280;SDS011;9266;51.132;17.062;2023-08-31T04:18:20;13.50;;;9.47;;
18280;SDS011;9266;51.132;17.062;2023-08-31T04:20:48;12.50;;;9.97;;
18280;SDS011;9266;51.132;17.062;2023-08-31T04:23:16;15.90;;;11.83;;
18280;SDS011;9266;51.132;17.062;2023-08-31T04:25:43;12.43;;;9.77;;
18280;SDS011;9266;51.132;17.062;2023-08-31T04:28:10;14.93;;;9.63;;
18280;SDS011;9266;51.132;17.062;2023-08-31T04:30:38;14.47;;;10.30;;
18280;SDS011;9266;51.132;17.062;2023-08-31T04:33:05;12.07;;;9.70;;
18280;SDS011;9266;51.132;17.062;2023-08-31T04:35:34;12.57;;;10.77;;
18280;SDS011;9266;51.132;17.062;2023-08-31T04:38:01;12.07;;;10.07;;
18280;SDS011;9266;51.132;17.062;2023-08-31T04:40:28;12.40;;;10.07;;
18280;SDS011;9266;51.132;17.062;2023-08-31T04:42:55;14.03;;;9.43;;
18280;SDS011;9266;51.132;17.062;2023-08-31T04:45:22;10.67;;;8.83;;
18280;SDS011;9266;51.132;17.062;2023-08-31T04:47:49;10.70;;;9.33;;
18280;SDS011;9266;51.132;17.062;2023-08-31T04:50:17;12.37;;;9.33;;
18280;SDS011;9266;51.132;17.062;2023-08-31T04:52:45;12.27;;;9.43;;
18280;SDS011;9266;51.132;17.062;2023-08-31T04:55:12;11.17;;;8.70;;
18280;SDS011;9266;51.132;17.062;2023-08-31T04:57:39;13.23;;;8.63;;
18280;SDS011;9266;51.132;17.062;2023-08-31T05:00:07;10.20;;;9.10;;
18280;SDS011;9266;51.132;17.062;2023-08-31T05:02:35;14.90;;;9.57;;
18280;SDS011;9266;51.132;17.062;2023-08-31T05:05:03;10.27;;;8.77;;
18280;SDS011;9266;51.132;17.062;2023-08-31T05:07:30;13.63;;;10.23;;
18280;SDS011;9266;51.132;17.062;2023-08-31T05:09:58;14.43;;;9.67;;
18280;SDS011;9266;51.132;17.062;2023-08-31T05:12:25;11.17;;;9.20;;
18280;SDS011;9266;51.132;17.062;2023-08-31T05:14:52;12.00;;;8.77;;
18280;SDS011;9266;51.132;17.062;2023-08-31T05:17:21;10.97;;;9.13;;
18280;SDS011;9266;51.132;17.062;2023-08-31T05:19:48;11.83;;;9.00;;
18280;SDS011;9266;51.132;17.062;2023-08-31T05:22:15;13.00;;;8.97;;
18280;SDS011;9266;51.132;17.062;2023-08-31T05:24:42;13.77;;;8.80;;
18280;SDS011;9266;51.132;17.062;2023-08-31T05:27:11;13.17;;;10.07;;
18280;SDS011;9266;51.132;17.062;2023-08-31T05:29:38;15.83;;;9.63;;
18280;SDS011;9266;51.132;17.062;2023-08-31T05:32:05;13.10;;;8.57;;
18280;SDS011;9266;51.132;17.062;2023-08-31T05:34:32;10.37;;;8.13;;
18280;SDS011;9266;51.132;17.062;2023-08-31T05:37:04;10.43;;;8.80;;
18280;SDS011;9266;51.132;17.062;2023-08-31T05:39:31;11.43;;;8.93;;
18280;SDS011;9266;51.132;17.062;2023-08-31T05:41:58;12.57;;;8.87;;
18280;SDS011;9266;51.132;17.062;2023-08-31T05:44:27;10.40;;;8.27;;
18280;SDS011;9266;51.132;17.062;2023-08-31T05:46:54;14.67;;;8.53;;
18280;SDS011;9266;51.132;17.062;2023-08-31T05:49:21;9.70;;;8.20;;
18280;SDS011;9266;51.132;17.062;2023-08-31T05:51:48;8.83;;;7.97;;
18280;SDS011;9266;51.132;17.062;2023-08-31T05:54:15;9.23;;;7.90;;
18280;SDS011;9266;51.132;17.062;2023-08-31T05:56:42;10.97;;;8.03;;
18280;SDS011;9266;51.132;17.062;2023-08-31T05:59:09;8.47;;;7.67;;
18280;SDS011;9266;51.132;17.062;2023-08-31T06:01:38;14.63;;;10.03;;
18280;SDS011;9266;51.132;17.062;2023-08-31T06:04:05;9.53;;;8.53;;
18280;SDS011;9266;51.132;17.062;2023-08-31T06:06:32;9.60;;;8.13;;
18280;SDS011;9266;51.132;17.062;2023-08-31T06:08:59;11.77;;;8.87;;
18280;SDS011;9266;51.132;17.062;2023-08-31T06:11:26;12.37;;;8.77;;
18280;SDS011;9266;51.132;17.062;2023-08-31T06:13:53;11.00;;;8.77;;
18280;SDS011;9266;51.132;17.062;2023-08-31T06:16:20;10.43;;;8.90;;
18280;SDS011;9266;51.132;17.062;2023-08-31T06:18:49;10.73;;;9.30;;
18280;SDS011;9266;51.132;17.062;2023-08-31T06:21:16;10.87;;;9.13;;
18280;SDS011;9266;51.132;17.062;2023-08-31T06:23:43;13.23;;;10.17;;
18280;SDS011;9266;51.132;17.062;2023-08-31T06:26:10;12.20;;;9.50;;
18280;SDS011;9266;51.132;17.062;2023-08-31T06:28:37;11.03;;;7.80;;
18280;SDS011;9266;51.132;17.062;2023-08-31T06:31:04;9.93;;;7.97;;
18280;SDS011;9266;51.132;17.062;2023-08-31T06:33:31;8.83;;;7.80;;
18280;SDS011;9266;51.132;17.062;2023-08-31T06:35:59;9.20;;;7.67;;
18280;SDS011;9266;51.132;17.062;2023-08-31T06:38:26;8.03;;;7.23;;
18280;SDS011;9266;51.132;17.062;2023-08-31T06:40:53;9.20;;;8.00;;
18280;SDS011;9266;51.132;17.062;2023-08-31T06:43:24;9.57;;;7.17;;
18280;SDS011;9266;51.132;17.062;2023-08-31T06:45:51;9.60;;;7.23;;
18280;SDS011;9266;51.132;17.062;2023-08-31T06:48:18;11.00;;;7.68;;
18280;SDS011;9266;51.132;17.062;2023-08-31T06:50:46;9.45;;;7.75;;
18280;SDS011;9266;51.132;17.062;2023-08-31T06:53:15;7.60;;;6.90;;
18280;SDS011;9266;51.132;17.062;2023-08-31T06:55:41;9.82;;;8.82;;
18280;SDS011;9266;51.132;17.062;2023-08-31T06:58:09;7.47;;;6.78;;
18280;SDS011;9266;51.132;17.062;2023-08-31T07:00:36;8.25;;;7.03;;
18280;SDS011;9266;51.132;17.062;2023-08-31T07:03:03;9.95;;;6.13;;
18280;SDS011;9266;51.132;17.062;2023-08-31T07:05:32;8.25;;;6.93;;
18280;SDS011;9266;51.132;17.062;2023-08-31T07:08:01;7.35;;;6.65;;
18280;SDS011;9266;51.132;17.062;2023-08-31T07:10:30;9.13;;;6.10;;
18280;SDS011;9266;51.132;17.062;2023-08-31T07:12:57;7.75;;;6.28;;
18280;SDS011;9266;51.132;17.062;2023-08-31T07:15:24;7.65;;;6.68;;
18280;SDS011;9266;51.132;17.062;2023-08-31T07:17:51;8.15;;;6.40;;
18280;SDS011;9266;51.132;17.062;2023-08-31T07:20:18;9.40;;;7.63;;
18280;SDS011;9266;51.132;17.062;2023-08-31T07:22:45;9.30;;;6.63;;
18280;SDS011;9266;51.132;17.062;2023-08-31T07:25:12;9.57;;;7.72;;
18280;SDS011;9266;51.132;17.062;2023-08-31T07:27:41;10.45;;;7.35;;
18280;SDS011;9266;51.132;17.062;2023-08-31T07:30:08;7.18;;;6.10;;
18280;SDS011;9266;51.132;17.062;2023-08-31T07:32:35;6.53;;;5.85;;
18280;SDS011;9266;51.132;17.062;2023-08-31T07:35:03;7.40;;;6.60;;
18280;SDS011;9266;51.132;17.062;2023-08-31T07:37:30;7.35;;;6.65;;
18280;SDS011;9266;51.132;17.062;2023-08-31T07:39:57;9.65;;;7.25;;
18280;SDS011;9266;51.132;17.062;2023-08-31T07:42:24;7.57;;;6.77;;
18280;SDS011;9266;51.132;17.062;2023-08-31T07:44:52;8.60;;;7.80;;
18280;SDS011;9266;51.132;17.062;2023-08-31T07:47:19;10.30;;;7.53;;
18280;SDS011;9266;51.132;17.062;2023-08-31T07:49:46;9.80;;;8.40;;
18280;SDS011;9266;51.132;17.062;2023-08-31T07:52:13;10.33;;;8.13;;
18280;SDS011;9266;51.132;17.062;2023-08-31T07:54:40;8.30;;;7.13;;
18280;SDS011;9266;51.132;17.062;2023-08-31T07:57:07;7.30;;;6.53;;
18280;SDS011;9266;51.132;17.062;2023-08-31T07:59:34;7.20;;;6.50;;
18280;SDS011;9266;51.132;17.062;2023-08-31T08:02:05;7.93;;;7.23;;
18280;SDS011;9266;51.132;17.062;2023-08-31T08:04:32;8.30;;;7.50;;
18280;SDS011;9266;51.132;17.062;2023-08-31T08:06:59;8.20;;;7.37;;
18280;SDS011;9266;51.132;17.062;2023-08-31T08:09:27;7.77;;;7.07;;
18280;SDS011;9266;51.132;17.062;2023-08-31T08:11:54;7.87;;;7.07;;
18280;SDS011;9266;51.132;17.062;2023-08-31T08:14:22;8.40;;;6.70;;
18280;SDS011;9266;51.132;17.062;2023-08-31T08:16:48;7.50;;;6.67;;
18280;SDS011;9266;51.132;17.062;2023-08-31T08:19:21;8.33;;;6.37;;
18280;SDS011;9266;51.132;17.062;2023-08-31T08:21:49;7.53;;;6.23;;
18280;SDS011;9266;51.132;17.062;2023-08-31T08:24:16;7.17;;;6.47;;
18280;SDS011;9266;51.132;17.062;2023-08-31T08:26:43;7.20;;;6.50;;
18280;SDS011;9266;51.132;17.062;2023-08-31T08:29:10;7.57;;;6.70;;
18280;SDS011;9266;51.132;17.062;2023-08-31T08:31:37;7.87;;;6.97;;
18280;SDS011;9266;51.132;17.062;2023-08-31T08:34:04;7.60;;;6.70;;
18280;SDS011;9266;51.132;17.062;2023-08-31T08:36:32;7.00;;;6.13;;
18280;SDS011;9266;51.132;17.062;2023-08-31T08:38:59;7.30;;;6.27;;
18280;SDS011;9266;51.132;17.062;2023-08-31T08:41:26;7.27;;;6.57;;
18280;SDS011;9266;51.132;17.062;2023-08-31T08:43:56;7.10;;;6.40;;
18280;SDS011;9266;51.132;17.062;2023-08-31T08:46:28;7.47;;;6.37;;
18280;SDS011;9266;51.132;17.062;2023-08-31T08:48:57;6.53;;;5.90;;
18280;SDS011;9266;51.132;17.062;2023-08-31T08:51:25;7.40;;;6.80;;
18280;SDS011;9266;51.132;17.062;2023-08-31T08:53:54;7.70;;;6.90;;
18280;SDS011;9266;51.132;17.062;2023-08-31T08:56:22;7.63;;;6.93;;
18280;SDS011;9266;51.132;17.062;2023-08-31T08:58:49;7.80;;;7.00;;
18280;SDS011;9266;51.132;17.062;2023-08-31T09:01:16;7.40;;;6.77;;
18280;SDS011;9266;51.132;17.062;2023-08-31T09:03:47;7.47;;;6.77;;
18280;SDS011;9266;51.132;17.062;2023-08-31T09:06:14;7.50;;;6.40;;
18280;SDS011;9266;51.132;17.062;2023-08-31T09:08:41;7.23;;;6.53;;
18280;SDS011;9266;51.132;17.062;2023-08-31T09:11:10;7.10;;;6.37;;
18280;SDS011;9266;51.132;17.062;2023-08-31T09:13:47;7.17;;;6.47;;
18280;SDS011;9266;51.132;17.062;2023-08-31T09:16:23;6.57;;;5.83;;
18280;SDS011;9266;51.132;17.062;2023-08-31T09:18:51;5.00;;;4.00;;
18280;SDS011;9266;51.132;17.062;2023-08-31T09:21:18;3.60;;;3.30;;
18280;SDS011;9266;51.132;17.062;2023-08-31T09:23:47;4.20;;;3.30;;
18280;SDS011;9266;51.132;17.062;2023-08-31T09:26:23;3.40;;;3.10;;
18280;SDS011;9266;51.132;17.062;2023-08-31T09:28:50;5.30;;;4.53;;
18280;SDS011;9266;51.132;17.062;2023-08-31T09:31:17;3.50;;;3.20;;
18280;SDS011;9266;51.132;17.062;2023-08-31T09:33:49;4.70;;;3.60;;
18280;SDS011;9266;51.132;17.062;2023-08-31T09:36:16;4.07;;;3.60;;
18280;SDS011;9266;51.132;17.062;2023-08-31T09:38:44;4.27;;;3.67;;
18280;SDS011;9266;51.132;17.062;2023-08-31T09:41:11;3.80;;;3.40;;
18280;SDS011;9266;51.132;17.062;2023-08-31T09:43:42;3.73;;;3.27;;
18280;SDS011;9266;51.132;17.062;2023-08-31T09:46:09;6.83;;;6.00;;
18280;SDS011;9266;51.132;17.062;2023-08-31T09:48:36;6.40;;;4.60;;
18280;SDS011;9266;51.132;17.062;2023-08-31T09:51:05;4.37;;;3.97;;
18280;SDS011;9266;51.132;17.062;2023-08-31T09:53:33;5.13;;;4.00;;
18280;SDS011;9266;51.132;17.062;2023-08-31T09:56:03;5.07;;;4.57;;
18280;SDS011;9266;51.132;17.062;2023-08-31T09:58:31;5.30;;;4.80;;
18280;SDS011;9266;51.132;17.062;2023-08-31T10:01:00;5.77;;;4.67;;
18280;SDS011;9266;51.132;17.062;2023-08-31T10:03:28;6.30;;;4.67;;
18280;SDS011;9266;51.132;17.062;2023-08-31T10:05:55;5.80;;;5.23;;
18280;SDS011;9266;51.132;17.062;2023-08-31T10:08:23;9.30;;;6.27;;
18280;SDS011;9266;51.132;17.062;2023-08-31T10:10:53;7.70;;;5.13;;
18280;SDS011;9266;51.132;17.062;2023-08-31T10:13:20;6.03;;;5.10;;
18280;SDS011;9266;51.132;17.062;2023-08-31T10:15:48;5.97;;;5.00;;
18280;SDS011;9266;51.132;17.062;2023-08-31T10:18:17;6.50;;;5.13;;
18280;SDS011;9266;51.132;17.062;2023-08-31T10:20:45;5.80;;;5.27;;
18280;SDS011;9266;51.132;17.062;2023-08-31T10:23:12;7.30;;;5.93;;
18280;SDS011;9266;51.132;17.062;2023-08-31T10:28:29;6.63;;;5.73;;
18280;SDS011;9266;51.132;17.062;2023-08-31T10:31:05;6.30;;;5.70;;
18280;SDS011;9266;51.132;17.062;2023-08-31T10:33:34;6.37;;;5.37;;
18280;SDS011;9266;51.132;17.062;2023-08-31T10:36:09;6.53;;;5.60;;
18280;SDS011;9266;51.132;17.062;2023-08-31T10:38:37;6.03;;;5.47;;
18280;SDS011;9266;51.132;17.062;2023-08-31T10:41:20;6.70;;;5.83;;
18280;SDS011;9266;51.132;17.062;2023-08-31T10:43:49;7.53;;;5.63;;
18280;SDS011;9266;51.132;17.062;2023-08-31T10:46:18;9.37;;;6.43;;
18280;SDS011;9266;51.132;17.062;2023-08-31T10:48:55;9.63;;;6.50;;
18280;SDS011;9266;51.132;17.062;2023-08-31T10:51:26;9.07;;;6.73;;
18280;SDS011;9266;51.132;17.062;2023-08-31T10:54:05;7.43;;;6.17;;
18280;SDS011;9266;51.132;17.062;2023-08-31T10:56:38;8.20;;;7.40;;
18280;SDS011;9266;51.132;17.062;2023-08-31T10:59:20;7.80;;;6.20;;
18280;SDS011;9266;51.132;17.062;2023-08-31T11:01:51;6.63;;;5.27;;
18280;SDS011;9266;51.132;17.062;2023-08-31T11:04:23;5.80;;;5.10;;
18280;SDS011;9266;51.132;17.062;2023-08-31T11:09:40;6.97;;;5.40;;
18280;SDS011;9266;51.132;17.062;2023-08-31T11:12:08;7.33;;;4.40;;
18280;SDS011;9266;51.132;17.062;2023-08-31T11:14:35;5.70;;;4.93;;
18280;SDS011;9266;51.132;17.062;2023-08-31T11:17:02;6.50;;;4.30;;
18280;SDS011;9266;51.132;17.062;2023-08-31T11:19:31;3.73;;;3.33;;
18280;SDS011;9266;51.132;17.062;2023-08-31T11:21:59;5.60;;;3.83;;
18280;SDS011;9266;51.132;17.062;2023-08-31T11:24:27;3.93;;;3.53;;
18280;SDS011;9266;51.132;17.062;2023-08-31T11:26:54;4.40;;;4.00;;
18280;SDS011;9266;51.132;17.062;2023-08-31T11:29:21;5.27;;;4.40;;
18280;SDS011;9266;51.132;17.062;2023-08-31T11:31:48;7.47;;;3.73;;
18280;SDS011;9266;51.132;17.062;2023-08-31T11:34:15;7.10;;;4.30;;
18280;SDS011;9266;51.132;17.062;2023-08-31T11:36:45;4.13;;;3.57;;
18280;SDS011;9266;51.132;17.062;2023-08-31T11:39:13;5.60;;;3.80;;
18280;SDS011;9266;51.132;17.062;2023-08-31T11:41:40;4.30;;;3.70;;
18280;SDS011;9266;51.132;17.062;2023-08-31T11:44:09;7.13;;;4.90;;
18280;SDS011;9266;51.132;17.062;2023-08-31T11:46:36;4.10;;;3.70;;
18280;SDS011;9266;51.132;17.062;2023-08-31T11:49:04;4.23;;;3.70;;
18280;SDS011;9266;51.132;17.062;2023-08-31T11:51:32;6.23;;;4.47;;
18280;SDS011;9266;51.132;17.062;2023-08-31T11:54:01;5.33;;;4.23;;
18280;SDS011;9266;51.132;17.062;2023-08-31T11:56:38;7.20;;;4.10;;
18280;SDS011;9266;51.132;17.062;2023-08-31T11:59:07;5.17;;;4.33;;
18280;SDS011;9266;51.132;17.062;2023-08-31T12:01:38;6.83;;;4.23;;
18280;SDS011;9266;51.132;17.062;2023-08-31T12:04:12;5.47;;;4.47;;
18280;SDS011;9266;51.132;17.062;2023-08-31T12:06:39;6.17;;;4.13;;
18280;SDS011;9266;51.132;17.062;2023-08-31T12:09:08;5.13;;;4.10;;
18280;SDS011;9266;51.132;17.062;2023-08-31T12:11:35;5.80;;;4.80;;
18280;SDS011;9266;51.132;17.062;2023-08-31T12:14:03;5.57;;;3.67;;
18280;SDS011;9266;51.132;17.062;2023-08-31T12:16:33;6.27;;;4.00;;
18280;SDS011;9266;51.132;17.062;2023-08-31T12:19:04;4.27;;;3.67;;
18280;SDS011;9266;51.132;17.062;2023-08-31T12:21:31;4.90;;;3.53;;
18280;SDS011;9266;51.132;17.062;2023-08-31T12:23:58;4.70;;;4.20;;
18280;SDS011;9266;51.132;17.062;2023-08-31T12:26:26;7.33;;;4.53;;
18280;SDS011;9266;51.132;17.062;2023-08-31T12:28:55;5.37;;;3.70;;
18280;SDS011;9266;51.132;17.062;2023-08-31T12:31:22;4.83;;;3.60;;
18280;SDS011;9266;51.132;17.062;2023-08-31T12:33:49;6.53;;;3.53;;
18280;SDS011;9266;51.132;17.062;2023-08-31T12:36:17;4.57;;;3.57;;
18280;SDS011;9266;51.132;17.062;2023-08-31T12:38:44;6.63;;;3.90;;
18280;SDS011;9266;51.132;17.062;2023-08-31T12:41:11;4.10;;;3.70;;
18280;SDS011;9266;51.132;17.062;2023-08-31T12:43:39;4.63;;;3.60;;
18280;SDS011;9266;51.132;17.062;2023-08-31T12:46:06;4.30;;;3.77;;
18280;SDS011;9266;51.132;17.062;2023-08-31T12:48:34;4.57;;;3.30;;
18280;SDS011;9266;51.132;17.062;2023-08-31T12:51:01;5.23;;;3.80;;
18280;SDS011;9266;51.132;17.062;2023-08-31T12:53:28;5.57;;;4.67;;
18280;SDS011;9266;51.132;17.062;2023-08-31T12:55:55;4.00;;;3.60;;
18280;SDS011;9266;51.132;17.062;2023-08-31T12:58:23;4.67;;;3.87;;
18280;SDS011;9266;51.132;17.062;2023-08-31T13:00:51;9.23;;;6.50;;
18280;SDS011;9266;51.132;17.062;2023-08-31T13:03:18;8.03;;;3.87;;
18280;SDS011;9266;51.132;17.062;2023-08-31T13:05:46;6.30;;;3.90;;
18280;SDS011;9266;51.132;17.062;2023-08-31T13:08:14;4.30;;;3.57;;
18280;SDS011;9266;51.132;17.062;2023-08-31T13:10:40;5.00;;;3.30;;
18280;SDS011;9266;51.132;17.062;2023-08-31T13:13:07;4.10;;;3.40;;
18280;SDS011;9266;51.132;17.062;2023-08-31T13:15:34;5.40;;;3.80;;
18280;SDS011;9266;51.132;17.062;2023-08-31T13:18:03;5.30;;;3.43;;
18280;SDS011;9266;51.132;17.062;2023-08-31T13:20:30;4.73;;;3.20;;
18280;SDS011;9266;51.132;17.062;2023-08-31T13:22:57;4.20;;;3.30;;
18280;SDS011;9266;51.132;17.062;2023-08-31T13:25:24;4.40;;;3.87;;
18280;SDS011;9266;51.132;17.062;2023-08-31T13:27:51;5.83;;;3.70;;
18280;SDS011;9266;51.132;17.062;2023-08-31T13:30:18;5.33;;;3.40;;
18280;SDS011;9266;51.132;17.062;2023-08-31T13:32:45;8.23;;;3.77;;
18280;SDS011;9266;51.132;17.062;2023-08-31T13:35:14;4.77;;;3.53;;
18280;SDS011;9266;51.132;17.062;2023-08-31T13:37:41;5.80;;;3.80;;
18280;SDS011;9266;51.132;17.062;2023-08-31T13:40:08;6.27;;;4.00;;
18280;SDS011;9266;51.132;17.062;2023-08-31T13:42:36;5.43;;;3.43;;
18280;SDS011;9266;51.132;17.062;2023-08-31T13:45:05;6.57;;;3.30;;
18280;SDS011;9266;51.132;17.062;2023-08-31T13:47:33;4.93;;;3.63;;
18280;SDS011;9266;51.132;17.062;2023-08-31T13:50:00;6.87;;;3.10;;
18280;SDS011;9266;51.132;17.062;2023-08-31T13:52:30;5.33;;;3.07;;
18280;SDS011;9266;51.132;17.062;2023-08-31T13:54:57;5.30;;;3.43;;
18280;SDS011;9266;51.132;17.062;2023-08-31T13:57:24;3.53;;;2.90;;
18280;SDS011;9266;51.132;17.062;2023-08-31T13:59:51;5.13;;;3.13;;
18280;SDS011;9266;51.132;17.062;2023-08-31T14:02:18;7.93;;;3.60;;
18280;SDS011;9266;51.132;17.062;2023-08-31T14:04:45;2.80;;;2.50;;
18280;SDS011;9266;51.132;17.062;2023-08-31T14:07:12;5.50;;;2.87;;
18280;SDS011;9266;51.132;17.062;2023-08-31T14:09:41;6.73;;;3.80;;
18280;SDS011;9266;51.132;17.062;2023-08-31T14:12:08;5.10;;;2.90;;
18280;SDS011;9266;51.132;17.062;2023-08-31T14:14:35;4.10;;;2.93;;
18280;SDS011;9266;51.132;17.062;2023-08-31T14:17:01;4.83;;;3.43;;
18280;SDS011;9266;51.132;17.062;2023-08-31T14:19:28;4.87;;;3.93;;
18280;SDS011;9266;51.132;17.062;2023-08-31T14:21:55;7.43;;;3.90;;
18280;SDS011;9266;51.132;17.062;2023-08-31T14:24:22;5.10;;;3.00;;
18280;SDS011;9266;51.132;17.062;2023-08-31T14:26:51;5.50;;;2.90;;
18280;SDS011;9266;51.132;17.062;2023-08-31T14:29:19;7.07;;;3.40;;
18280;SDS011;9266;51.132;17.062;2023-08-31T14:31:46;3.07;;;2.77;;
18280;SDS011;9266;51.132;17.062;2023-08-31T14:34:13;4.50;;;2.57;;
18280;SDS011;9266;51.132;17.062;2023-08-31T14:36:41;3.80;;;3.40;;
18280;SDS011;9266;51.132;17.062;2023-08-31T14:39:08;4.37;;;3.17;;
18280;SDS011;9266;51.132;17.062;2023-08-31T14:41:35;4.07;;;2.90;;
18280;SDS011;9266;51.132;17.062;2023-08-31T14:44:03;2.83;;;2.50;;
18280;SDS011;9266;51.132;17.062;2023-08-31T14:46:31;5.73;;;2.87;;
18280;SDS011;9266;51.132;17.062;2023-08-31T14:48:58;3.83;;;2.50;;
18280;SDS011;9266;51.132;17.062;2023-08-31T14:51:25;5.13;;;2.80;;
18280;SDS011;9266;51.132;17.062;2023-08-31T14:53:53;4.33;;;3.00;;